Home   Weather   Pakistan   Bahawalpur   Past weeks
Flag for Pakistan

Past Weather in Bahawalpur, Pakistan — Yesterday and Last 2 Weeks

Currently: 113 °F. Sunny. (Weather station: Multan Airport, Pakistan). See more current weather

Past Weather in Bahawalpur — Graph

°F

Bahawalpur Temperature Yesterday

Maximum temperature yesterday: 113 °F (at 2:30 pm)
Minimum temperature yesterday: 86 °F (at 6:00 am)
Average temperature yesterday: 100 °F

High & Low Weather Summary for the Past Weeks

 TemperatureHumidityPressure
High118 °F (May 26, 4:00 pm)62% (May 27, 4:55 am)29.77 "Hg (May 27, 4:55 am)
Low82 °F (May 30, 4:00 am)6% (May 27, 3:00 pm)29.24 "Hg (May 28, 6:00 pm)
Average101 °F28%29.51 "Hg
* Reported May 15 5:00 pm — May 30 5:00 pm, Bahawalpur. Weather by CustomWeather, © 2024

Note: Actual official high and low records may vary slightly from our data, if they occured in-between our weather recording intervals... More about our weather records

Bahawalpur Weather History for the Previous 24 Hours

Scroll right to see more
 ConditionsComfort  
Time TempWeatherWind HumidityBarometerVisibility
5:00 pm
Thu, May 30
113 °FSunny.No wind8%29.42 "Hg10 mi
4:30 pm115 °FSunny.7 mph7%29.42 "Hg10 mi
4:00 pm115 °FSunny.9 mph7%29.42 "Hg10 mi
3:30 pm113 °FHaze.5 mph7%29.42 "Hg2 mi
3:00 pm113 °FHaze.7 mph7%29.45 "Hg4 mi
2:30 pm111 °FHaze.No wind8%29.45 "Hg4 mi
1:30 pm111 °FHaze.5 mph9%29.47 "Hg3 mi
1:00 pm111 °FHaze.5 mph9%29.47 "Hg3 mi
12:30 pm109 °FHaze.5 mph11%29.47 "Hg3 mi
12:00 pm109 °FHaze.5 mph11%29.47 "Hg3 mi
11:30 am106 °FHaze.No wind14%29.47 "Hg2 mi
11:00 am106 °FHaze.No wind14%29.47 "Hg2 mi
10:30 am106 °FHaze.No wind13%29.47 "Hg2 mi
10:00 am104 °FHaze.No wind16%29.47 "Hg2 mi
9:30 am100 °FHaze.No wind24%29.47 "Hg1 mi
9:00 am99 °FHaze.No wind25%29.47 "Hg1 mi
8:30 am95 °FHaze.No wind50%29.47 "Hg1 mi
8:00 am93 °FHaze.No wind30%29.47 "Hg1 mi
7:00 am84 °FHaze.No wind40%29.45 "Hg2 mi
6:30 am84 °FHaze.5 mph43%29.45 "Hg2 mi
6:00 am84 °FHaze.9 mph43%29.42 "Hg2 mi
5:30 am82 °FHaze.No wind45%29.39 "Hg2 mi
5:00 am82 °FHaze.No wind45%29.39 "Hg2 mi
4:00 am82 °FHaze.No wind45%29.36 "Hg2 mi
3:00 am84 °FHaze.No wind45%29.36 "Hg2 mi
2:30 am88 °FHaze.No wind38%29.39 "Hg2 mi
12:30 am91 °FHaze.No wind36%29.39 "Hg2 mi
11:30 pm
Wed, May 29
93 °FHaze.No wind32%29.39 "Hg2 mi
11:00 pm93 °FHaze.No wind32%29.39 "Hg2 mi
10:30 pm93 °FHaze.No wind32%29.39 "Hg2 mi
10:00 pm93 °FHaze.No wind32%29.39 "Hg2 mi
9:30 pm95 °FHaze.No wind28%29.36 "Hg2 mi
9:00 pm97 °FHaze.No wind28%29.36 "Hg2 mi
8:30 pm100 °FHaze.No wind21%29.36 "Hg2 mi
8:00 pm102 °FHaze.No wind20%29.36 "Hg2 mi
6:30 pm111 °FHaze.No wind7%29.30 "Hg2 mi
6:00 pm111 °FHaze.7 mph6%29.30 "Hg2 mi
Weather by CustomWeather, © 2024

See weather overview